Terminal Aerodrome Forecast
Issued by NWS Denver/Boulder, CO

Home | Current Version | Previous Version | Text Only | Print | Product List | Glossary On
Versions: 1 2 3 4 5 6 7 8 9 10 11 12 13 14 15 16 17 18 19 20 21 22 23 24 25 26 27 28 29 30 31 32 33 34 35 36 37 38 39 40 41 42 43 44 45 46 47 48 49 50
000
FTUS45 KBOU 221128
TAFDEN
TAF
KDEN 221128Z 2212/2318 02011KT 5SM BR BKN005
      TEMPO 2213/2215 1/2SM FG BKN005
     FM221500 05010KT P6SM SCT005 BKN010
      TEMPO 2215/2216 1SM BR BKN005
     FM221700 07009KT P6SM FEW010 SCT030
     FM222100 04020G30KT P6SM BKN020 OVC120
     FM230100 04015KT P6SM SCT010 OVC020
     FM230500 01011KT P6SM SCT005 OVC010
     FM231600 12010KT P6SM SCT020 BKN150=

USA.gov is the U.S. government's official web portal to all federal, state and local government web resources and services.